Terminal Aerodrome Forecast
Issued by NWS

Home | Current Version | Previous Version | Text Only | Print | Product List | Glossary On
Versions: 1 2 3 4 5 6 7 8 9 10 11 12
000
FTUS42 KTBW 020525
TAFRSW
TAF
KRSW 020525Z 0206/0306 VRB03KT P6SM FEW250
     FM021400 10006KT P6SM SCT030 SCT250
     FM021700 14007KT P6SM VCSH SCT040 SCT250
     FM022000 20007KT P6SM VCSH SCT040 SCT250
     FM030100 VRB04KT P6SM SCT250=

USA.gov is the U.S. government's official web portal to all federal, state and local government web resources and services.